Wetterdaten: Dienstag, 28.08.2012
Datum Zeit Temperatur Luftfeuchte Regen Wind Richtung Richtung Taupunkt Windchill Windben
28.08.2012 00:00 8,9 C 89 % 0,0 l/m 0,0 km/h (0 Bft) N-NO 22 7,2 C 8,3 C 0,0 km/h (0 Bft)
28.08.2012 00:05 8,9 C 89 % 0,0 l/m 0,0 km/h (0 Bft) NW 315 7,2 C 8,4 C 0,0 km/h (0 Bft)
28.08.2012 00:10 8,9 C 89 % 0,0 l/m 0,0 km/h (0 Bft) N-NW 337 7,2 C 8,5 C 0,0 km/h (0 Bft)
28.08.2012 00:15 9,1 C 90 % 0,0 l/m 0,2 km/h (0 Bft) W 270 7,5 C 8,6 C 0,0 km/h (0 Bft)
28.08.2012 00:20 9,1 C 90 % 0,0 l/m 0,2 km/h (0 Bft) N-NO 22 7,5 C 8,5 C 0,0 km/h (0 Bft)
28.08.2012 00:25 9,3 C 90 % 0,0 l/m 0,2 km/h (0 Bft) N-NW 337 7,7 C 8,6 C 2,1 km/h (1 Bft)
28.08.2012 00:30 9,2 C 90 % 0,0 l/m 0,3 km/h (0 Bft) N 360 7,6 C 8,6 C 0,0 km/h (0 Bft)
28.08.2012 00:35 9,3 C 90 % 0,0 l/m 0,3 km/h (0 Bft) N 360 7,7 C 8,7 C 0,0 km/h (0 Bft)
28.08.2012 00:40 9,3 C 90 % 0,0 l/m 0,2 km/h (0 Bft) NO 45 7,7 C 8,7 C 0,0 km/h (0 Bft)
28.08.2012 00:45 9,0 C 90 % 0,0 l/m 0,0 km/h (0 Bft) N-NW 337 7,4 C 8,6 C 0,0 km/h (0 Bft)
28.08.2012 00:50 8,7 C 90 % 0,0 l/m 0,0 km/h (0 Bft) N-NW 337 7,2 C 8,4 C 0,0 km/h (0 Bft)
28.08.2012 00:55 8,6 C 90 % 0,0 l/m 0,0 km/h (0 Bft) N 360 7,1 C 8,1 C 0,0 km/h (0 Bft)
28.08.2012 01:00 8,6 C 90 % 0,0 l/m 0,0 km/h (0 Bft) N-NW 337 7,1 C 8,0 C 0,0 km/h (0 Bft)
28.08.2012 01:05 8,5 C 90 % 0,0 l/m 0,0 km/h (0 Bft) W-NW 292 7,0 C 7,9 C 0,0 km/h (0 Bft)
28.08.2012 01:10 8,3 C 90 % 0,0 l/m 0,0 km/h (0 Bft) W 270 6,8 C 7,8 C 0,0 km/h (0 Bft)
28.08.2012 01:15 8,2 C 90 % 0,0 l/m 0,0 km/h (0 Bft) N-NW 337 6,7 C 7,7 C 1,9 km/h (1 Bft)
28.08.2012 01:20 8,3 C 90 % 0,0 l/m 0,5 km/h (0 Bft) N 360 6,8 C 7,8 C 0,0 km/h (0 Bft)
28.08.2012 01:25 8,2 C 90 % 0,0 l/m 0,8 km/h (0 Bft) N-NW 337 6,7 C 7,8 C 0,0 km/h (0 Bft)
28.08.2012 01:30 8,4 C 90 % 0,0 l/m 1,0 km/h (0 Bft) N 360 6,9 C 7,9 C 2,3 km/h (1 Bft)
28.08.2012 01:35 8,3 C 90 % 0,0 l/m 0,8 km/h (0 Bft) N-NO 22 6,8 C 7,8 C 0,0 km/h (0 Bft)
28.08.2012 01:40 8,3 C 91 % 0,0 l/m 0,3 km/h (0 Bft) N 360 6,9 C 7,8 C 0,0 km/h (0 Bft)
28.08.2012 01:45 8,0 C 90 % 0,0 l/m 0,0 km/h (0 Bft) N-NW 337 6,5 C 7,7 C 0,0 km/h (0 Bft)
28.08.2012 01:50 8,1 C 91 % 0,0 l/m 0,0 km/h (0 Bft) N-NW 337 6,7 C 7,6 C 0,0 km/h (0 Bft)
28.08.2012 01:55 8,0 C 90 % 0,0 l/m 0,0 km/h (0 Bft) W-NW 292 6,5 C 7,5 C 0,0 km/h (0 Bft)
28.08.2012 02:00 8,1 C 91 % 0,0 l/m 0,0 km/h (0 Bft) N-NW 337 6,7 C 7,5 C 0,0 km/h (0 Bft)
28.08.2012 02:05 8,1 C 91 % 0,0 l/m 0,2 km/h (0 Bft) N 360 6,7 C 7,5 C 1,6 km/h (1 Bft)
28.08.2012 02:10 8,1 C 91 % 0,0 l/m 0,3 km/h (0 Bft) N 360 6,7 C 7,6 C 0,0 km/h (0 Bft)
28.08.2012 02:15 8,1 C 91 % 0,0 l/m 0,5 km/h (0 Bft) N-NW 337 6,7 C 7,5 C 0,0 km/h (0 Bft)
28.08.2012 02:20 8,1 C 91 % 0,0 l/m 0,2 km/h (0 Bft) N-NO 22 6,7 C 7,5 C 0,0 km/h (0 Bft)
28.08.2012 02:25 8,0 C 91 % 0,0 l/m 0,2 km/h (0 Bft) N 360 6,6 C 7,4 C 0,0 km/h (0 Bft)
28.08.2012 02:30 8,1 C 91 % 0,0 l/m 0,0 km/h (0 Bft) N-NO 22 6,7 C 7,4 C 0,0 km/h (0 Bft)
28.08.2012 02:35 8,2 C 91 % 0,0 l/m 0,0 km/h (0 Bft) NO 45 6,8 C 7,4 C 0,0 km/h (0 Bft)
28.08.2012 02:40 8,1 C 91 % 0,0 l/m 0,0 km/h (0 Bft) N 360 6,7 C 7,4 C 0,0 km/h (0 Bft)
28.08.2012 02:45 7,9 C 91 % 0,0 l/m 0,0 km/h (0 Bft) N-NO 22 6,5 C 7,4 C 0,0 km/h (0 Bft)
28.08.2012 02:50 7,8 C 91 % 0,0 l/m 0,0 km/h (0 Bft) N-NO 22 6,4 C 7,3 C 0,0 km/h (0 Bft)
28.08.2012 02:55 7,7 C 91 % 0,0 l/m 0,0 km/h (0 Bft) N-NO 22 6,3 C 7,1 C 0,0 km/h (0 Bft)
28.08.2012 03:00 7,8 C 91 % 0,0 l/m 0,0 km/h (0 Bft) S 180 6,4 C 7,1 C 0,0 km/h (0 Bft)
28.08.2012 03:05 7,6 C 91 % 0,0 l/m 0,0 km/h (0 Bft) S 180 6,2 C 7,1 C 0,0 km/h (0 Bft)
28.08.2012 03:10 7,6 C 91 % 0,0 l/m 0,0 km/h (0 Bft) NO 45 6,2 C 7,1 C 0,0 km/h (0 Bft)
28.08.2012 03:15 7,7 C 91 % 0,0 l/m 0,0 km/h (0 Bft) N 360 6,3 C 7,1 C 0,0 km/h (0 Bft)
28.08.2012 03:20 7,7 C 91 % 0,0 l/m 0,0 km/h (0 Bft) N 360 6,3 C 7,1 C 0,0 km/h (0 Bft)
28.08.2012 03:25 7,5 C 91 % 0,0 l/m 0,0 km/h (0 Bft) N-NO 22 6,1 C 7,1 C 0,0 km/h (0 Bft)
28.08.2012 03:30 7,5 C 91 % 0,0 l/m 0,2 km/h (0 Bft) W 270 6,1 C 7,1 C 2,7 km/h (1 Bft)
28.08.2012 03:35 7,6 C 91 % 0,0 l/m 0,3 km/h (0 Bft) N-NW 337 6,2 C 7,1 C 0,0 km/h (0 Bft)
28.08.2012 03:40 7,8 C 91 % 0,0 l/m 0,3 km/h (0 Bft) O-NO 67 6,4 C 7,3 C 0,0 km/h (0 Bft)
28.08.2012 03:45 8,0 C 91 % 0,0 l/m 0,2 km/h (0 Bft) N-NO 22 6,6 C 7,5 C 0,0 km/h (0 Bft)
28.08.2012 03:50 8,0 C 91 % 0,0 l/m 0,2 km/h (0 Bft) NO 45 6,6 C 7,6 C 0,0 km/h (0 Bft)
28.08.2012 03:55 8,2 C 91 % 0,0 l/m 0,2 km/h (0 Bft) N 360 6,8 C 7,7 C 3,1 km/h (1 Bft)
28.08.2012 04:00 8,3 C 91 % 0,0 l/m 0,5 km/h (0 Bft) N 360 6,9 C 7,7 C 0,0 km/h (0 Bft)
28.08.2012 04:05 8,2 C 91 % 0,0 l/m 0,5 km/h (0 Bft) O-SO 112 6,8 C 7,6 C 3,5 km/h (1 Bft)
28.08.2012 04:10 8,0 C 91 % 0,0 l/m 0,2 km/h (0 Bft) S-SO 157 6,6 C 7,5 C 0,0 km/h (0 Bft)
28.08.2012 04:15 8,0 C 90 % 0,0 l/m 0,0 km/h (0 Bft) NO 45 6,5 C 7,4 C 0,0 km/h (0 Bft)
28.08.2012 04:20 8,1 C 90 % 0,0 l/m 0,2 km/h (0 Bft) SO 135 6,6 C 7,4 C 0,0 km/h (0 Bft)
28.08.2012 04:25 7,9 C 90 % 0,0 l/m 0,0 km/h (0 Bft) N 360 6,4 C 7,3 C 0,0 km/h (0 Bft)
28.08.2012 04:30 7,7 C 90 % 0,0 l/m 0,0 km/h (0 Bft) N 360 6,2 C 7,2 C 0,0 km/h (0 Bft)
28.08.2012 04:35 7,5 C 90 % 0,0 l/m 0,0 km/h (0 Bft) W-NW 292 6,0 C 7,1 C 0,0 km/h (0 Bft)
28.08.2012 04:40 7,5 C 90 % 0,0 l/m 0,3 km/h (0 Bft) O-NO 67 6,0 C 7,0 C 0,0 km/h (0 Bft)
28.08.2012 04:45 8,0 C 90 % 0,0 l/m 0,6 km/h (0 Bft) NO 45 6,5 C 7,0 C 2,3 km/h (1 Bft)
28.08.2012 04:50 7,9 C 90 % 0,0 l/m 0,6 km/h (0 Bft) O-SO 112 6,4 C 7,1 C 0,0 km/h (0 Bft)
28.08.2012 04:55 7,6 C 89 % 0,0 l/m 0,5 km/h (0 Bft) O-SO 112 5,9 C 7,0 C 0,0 km/h (0 Bft)
28.08.2012 05:00 7,6 C 89 % 0,0 l/m 0,3 km/h (0 Bft) N-NO 22 5,9 C 6,8 C 0,0 km/h (0 Bft)
28.08.2012 05:05 7,8 C 89 % 0,0 l/m 0,2 km/h (0 Bft) O 90 6,1 C 6,7 C 0,0 km/h (0 Bft)
28.08.2012 05:10 7,8 C 89 % 0,0 l/m 0,2 km/h (0 Bft) N-NO 22 6,1 C 6,7 C 0,0 km/h (0 Bft)
28.08.2012 05:15 7,7 C 89 % 0,0 l/m 0,2 km/h (0 Bft) S 180 6,0 C 6,8 C 1,6 km/h (1 Bft)
28.08.2012 05:20 7,6 C 89 % 0,0 l/m 0,2 km/h (0 Bft) W-SW 247 5,9 C 6,7 C 0,0 km/h (0 Bft)
28.08.2012 05:25 7,8 C 89 % 0,0 l/m 0,2 km/h (0 Bft) S 180 6,1 C 6,7 C 0,0 km/h (0 Bft)
28.08.2012 05:30 7,7 C 88 % 0,0 l/m 0,2 km/h (0 Bft) W-NW 292 5,8 C 6,7 C 0,0 km/h (0 Bft)
28.08.2012 05:35 7,5 C 88 % 0,0 l/m 0,2 km/h (0 Bft) S 180 5,6 C 6,7 C 0,0 km/h (0 Bft)
28.08.2012 05:40 7,4 C 88 % 0,0 l/m 0,0 km/h (0 Bft) N 360 5,5 C 6,6 C 0,0 km/h (0 Bft)
28.08.2012 05:45 7,3 C 88 % 0,0 l/m 0,0 km/h (0 Bft) NO 45 5,4 C 6,5 C 0,0 km/h (0 Bft)
28.08.2012 05:50 7,4 C 88 % 0,0 l/m 0,2 km/h (0 Bft) N-NO 22 5,5 C 6,5 C 1,6 km/h (1 Bft)
28.08.2012 05:55 7,4 C 88 % 0,0 l/m 0,5 km/h (0 Bft) S 180 5,5 C 6,6 C 0,0 km/h (0 Bft)
28.08.2012 06:00 7,3 C 88 % 0,0 l/m 0,3 km/h (0 Bft) S-SO 157 5,4 C 6,5 C 0,0 km/h (0 Bft)
28.08.2012 06:05 7,5 C 88 % 0,0 l/m 0,0 km/h (0 Bft) N 360 5,6 C 6,5 C 0,0 km/h (0 Bft)
28.08.2012 06:10 7,7 C 88 % 0,0 l/m 0,0 km/h (0 Bft) S-SW 202 5,8 C 6,5 C 0,0 km/h (0 Bft)
28.08.2012 06:15 7,6 C 88 % 0,0 l/m 0,2 km/h (0 Bft) W-NW 292 5,7 C 6,6 C 0,0 km/h (0 Bft)
28.08.2012 06:20 7,7 C 88 % 0,0 l/m 0,3 km/h (0 Bft) N 360 5,8 C 6,6 C 2,6 km/h (1 Bft)
28.08.2012 06:25 8,0 C 87 % 0,0 l/m 0,2 km/h (0 Bft) N 360 6,0 C 6,6 C 0,0 km/h (0 Bft)
28.08.2012 06:30 7,8 C 87 % 0,0 l/m 0,2 km/h (0 Bft) NW 315 5,8 C 6,7 C 0,0 km/h (0 Bft)
28.08.2012 06:35 7,7 C 87 % 0,0 l/m 0,2 km/h (0 Bft) N-NW 337 5,7 C 6,7 C 0,0 km/h (0 Bft)
28.08.2012 06:40 7,9 C 87 % 0,0 l/m 0,2 km/h (0 Bft) N 360 5,9 C 6,7 C 0,0 km/h (0 Bft)
28.08.2012 06:45 7,9 C 87 % 0,0 l/m 0,2 km/h (0 Bft) W-NW 292 5,9 C 6,7 C 0,0 km/h (0 Bft)
28.08.2012 06:50 7,7 C 87 % 0,0 l/m 0,2 km/h (0 Bft) NW 315 5,7 C 6,7 C 0,0 km/h (0 Bft)
28.08.2012 06:55 8,0 C 86 % 0,0 l/m 0,2 km/h (0 Bft) S 180 5,8 C 6,8 C 0,0 km/h (0 Bft)
28.08.2012 07:00 7,9 C 86 % 0,0 l/m 0,2 km/h (0 Bft) N-NW 337 5,7 C 6,9 C 0,0 km/h (0 Bft)
28.08.2012 07:05 8,1 C 86 % 0,0 l/m 0,2 km/h (0 Bft) W 270 5,9 C 7,4 C 0,0 km/h (0 Bft)
28.08.2012 07:10 8,1 C 86 % 0,0 l/m 0,3 km/h (0 Bft) W-NW 292 5,9 C 8,8 C 0,0 km/h (0 Bft)
28.08.2012 07:15 8,2 C 86 % 0,0 l/m 0,3 km/h (0 Bft) N 360 6,0 C 10,7 C 1,9 km/h (1 Bft)
28.08.2012 07:20 8,4 C 86 % 0,0 l/m 0,2 km/h (0 Bft) N-NO 22 6,2 C 11,5 C 0,0 km/h (0 Bft)
28.08.2012 07:25 8,4 C 86 % 0,0 l/m 0,3 km/h (0 Bft) N-NW 337 6,2 C 12,9 C 0,0 km/h (0 Bft)
28.08.2012 07:30 8,5 C 86 % 0,0 l/m 0,2 km/h (0 Bft) N 360 6,3 C 13,5 C 0,0 km/h (0 Bft)
28.08.2012 07:35 8,8 C 86 % 0,0 l/m 0,3 km/h (0 Bft) N 360 6,6 C 14,5 C 1,6 km/h (1 Bft)
28.08.2012 07:40 9,3 C 85 % 0,0 l/m 0,8 km/h (0 Bft) N-NW 337 6,9 C 15,0 C 0,0 km/h (0 Bft)
28.08.2012 07:45 9,9 C 83 % 0,0 l/m 0,8 km/h (0 Bft) N-NW 337 7,2 C 15,8 C 0,0 km/h (0 Bft)
28.08.2012 07:50 10,1 C 80 % 0,0 l/m 0,3 km/h (0 Bft) N 360 10,0 C 16,7 C 0,0 km/h (0 Bft)
28.08.2012 07:55 10,3 C 71 % 0,0 l/m 0,2 km/h (0 Bft) N-NW 337 10,0 C 17,6 C 0,0 km/h (0 Bft)
28.08.2012 08:00 10,4 C 70 % 0,0 l/m 0,2 km/h (0 Bft) N-NO 22 10,8 C 18,1 C 0,0 km/h (0 Bft)
28.08.2012 08:05 10,8 C 63 % 0,0 l/m 0,3 km/h (0 Bft) N 360 10,2 C 18,8 C 3,9 km/h (1 Bft)
28.08.2012 08:10 13,5 C 63 % 0,0 l/m 0,3 km/h (0 Bft) N-NO 22 10,8 C 19,5 C 0,0 km/h (0 Bft)
28.08.2012 08:15 15,8 C 59 % 0,0 l/m 0,0 km/h (0 Bft) O 90 11,2 C 20,5 C 0,0 km/h (0 Bft)
28.08.2012 08:20 17,2 C 59 % 0,0 l/m 0,2 km/h (0 Bft) N-NO 22 11,8 C 20,9 C 0,0 km/h (0 Bft)
28.08.2012 08:25 18,4 C 56 % 0,0 l/m 0,3 km/h (0 Bft) N 360 11,5 C 21,7 C 1,8 km/h (1 Bft)
28.08.2012 08:30 18,5 C 51 % 0,0 l/m 0,5 km/h (0 Bft) W-NW 292 9,9 C 22,2 C 2,1 km/h (1 Bft)
28.08.2012 08:35 17,7 C 54 % 0,0 l/m 0,3 km/h (0 Bft) NO 45 11,5 C 22,9 C 0,0 km/h (0 Bft)
28.08.2012 08:40 17,2 C 52 % 0,0 l/m 0,2 km/h (0 Bft) N-NO 22 11,1 C 23,6 C 1,6 km/h (1 Bft)
28.08.2012 08:45 16,9 C 52 % 0,0 l/m 0,0 km/h (0 Bft) N 360 11,2 C 24,1 C 0,0 km/h (0 Bft)
28.08.2012 08:50 16,9 C 52 % 0,0 l/m 0,0 km/h (0 Bft) NO 45 11,6 C 24,8 C 0,0 km/h (0 Bft)
28.08.2012 08:55 17,1 C 49 % 0,0 l/m 0,2 km/h (0 Bft) N 360 11,2 C 25,2 C 1,8 km/h (1 Bft)
28.08.2012 09:00 17,2 C 50 % 0,0 l/m 0,2 km/h (0 Bft) O 90 12,0 C 25,6 C 0,0 km/h (0 Bft)
28.08.2012 09:05 17,7 C 49 % 0,0 l/m 0,2 km/h (0 Bft) O 90 12,4 C 26,8 C 0,0 km/h (0 Bft)
28.08.2012 09:10 18,0 C 48 % 0,0 l/m 0,0 km/h (0 Bft) O 90 12,3 C 27,3 C 0,0 km/h (0 Bft)
28.08.2012 09:15 18,5 C 46 % 0,0 l/m 0,2 km/h (0 Bft) N-NO 22 11,7 C 27,8 C 1,6 km/h (1 Bft)
28.08.2012 09:20 18,7 C 46 % 0,0 l/m 0,2 km/h (0 Bft) NW 315 11,9 C 27,8 C 0,0 km/h (0 Bft)
28.08.2012 09:25 19,3 C 45 % 0,0 l/m 0,6 km/h (0 Bft) N 360 11,7 C 27,5 C 1,6 km/h (1 Bft)
28.08.2012 09:30 19,5 C 44 % 0,0 l/m 0,5 km/h (0 Bft) N-NO 22 12,0 C 27,5 C 0,0 km/h (0 Bft)
28.08.2012 09:35 19,7 C 42 % 0,0 l/m 0,3 km/h (0 Bft) N-NO 22 11,3 C 27,7 C 1,8 km/h (1 Bft)
28.08.2012 09:40 19,9 C 43 % 0,0 l/m 0,3 km/h (0 Bft) N-NO 22 11,4 C 28,1 C 0,0 km/h (0 Bft)
28.08.2012 09:45 20,1 C 44 % 0,0 l/m 0,2 km/h (0 Bft) NO 45 12,2 C 28,4 C 0,0 km/h (0 Bft)
28.08.2012 09:50 20,3 C 45 % 0,0 l/m 0,2 km/h (0 Bft) N-NO 22 12,7 C 28,8 C 0,0 km/h (0 Bft)
28.08.2012 09:55 20,6 C 45 % 0,0 l/m 0,2 km/h (0 Bft) N-NO 22 12,5 C 29,1 C 0,0 km/h (0 Bft)
28.08.2012 10:00 20,8 C 46 % 0,0 l/m 0,0 km/h (0 Bft) O-NO 67 13,0 C 29,2 C 0,0 km/h (0 Bft)
28.08.2012 10:05 21,3 C 45 % 0,0 l/m 0,0 km/h (0 Bft) N 360 12,9 C 30,0 C 0,0 km/h (0 Bft)
28.08.2012 10:10 21,5 C 46 % 0,0 l/m 0,0 km/h (0 Bft) N 360 13,2 C 30,2 C 0,0 km/h (0 Bft)
28.08.2012 10:15 21,8 C 42 % 0,0 l/m 0,0 km/h (0 Bft) N-NO 22 12,3 C 30,3 C 0,0 km/h (0 Bft)
28.08.2012 10:20 22,0 C 39 % 0,0 l/m 0,2 km/h (0 Bft) N-NO 22 11,0 C 30,4 C 1,8 km/h (1 Bft)
28.08.2012 10:25 22,5 C 38 % 0,0 l/m 0,2 km/h (0 Bft) O-SO 112 10,5 C 30,5 C 0,0 km/h (0 Bft)
28.08.2012 10:30 22,8 C 38 % 0,0 l/m 0,3 km/h (0 Bft) O 90 10,7 C 30,7 C 0,0 km/h (0 Bft)
28.08.2012 10:35 23,1 C 36 % 0,0 l/m 0,5 km/h (0 Bft) W-NW 292 10,5 C 31,2 C 0,0 km/h (0 Bft)
28.08.2012 10:40 23,4 C 37 % 0,0 l/m 0,5 km/h (0 Bft) NO 45 10,8 C 31,6 C 0,0 km/h (0 Bft)
28.08.2012 10:45 23,9 C 37 % 0,0 l/m 0,3 km/h (0 Bft) N 360 10,3 C 31,9 C 0,0 km/h (0 Bft)
28.08.2012 10:50 24,1 C 37 % 0,0 l/m 0,5 km/h (0 Bft) NO 45 10,4 C 31,8 C 0,0 km/h (0 Bft)
28.08.2012 10:55 24,4 C 39 % 0,0 l/m 0,8 km/h (0 Bft) N-NO 22 11,0 C 31,6 C 2,4 km/h (1 Bft)
28.08.2012 11:00 24,7 C 40 % 0,0 l/m 1,0 km/h (0 Bft) N-NO 22 11,7 C 31,5 C 0,0 km/h (0 Bft)
28.08.2012 11:05 25,3 C 38 % 0,0 l/m 2,9 km/h (1 Bft) S 180 11,5 C 30,9 C 10,3 km/h (2 Bft)
28.08.2012 11:10 25,6 C 33 % 0,0 l/m 4,3 km/h (1 Bft) S-SO 157 9,7 C 30,5 C 8,0 km/h (2 Bft)
28.08.2012 11:15 26,0 C 37 % 0,0 l/m 5,8 km/h (2 Bft) S 180 11,1 C 29,5 C 11,6 km/h (2 Bft)
28.08.2012 11:20 26,3 C 37 % 0,0 l/m 5,5 km/h (1 Bft) SO 135 11,1 C 29,3 C 3,9 km/h (1 Bft)
28.08.2012 11:25 26,7 C 35 % 0,0 l/m 6,0 km/h (2 Bft) S-SW 202 10,6 C 29,0 C 12,4 km/h (3 Bft)
28.08.2012 11:30 26,9 C 35 % 0,0 l/m 5,8 km/h (2 Bft) SO 135 10,9 C 28,9 C 6,1 km/h (2 Bft)
28.08.2012 11:35 27,1 C 34 % 0,0 l/m 5,8 km/h (2 Bft) SO 135 10,4 C 28,8 C 12,9 km/h (3 Bft)
28.08.2012 11:40 27,3 C 35 % 0,0 l/m 6,3 km/h (2 Bft) SO 135 10,7 C 28,6 C 5,3 km/h (1 Bft)
28.08.2012 11:45 27,5 C 35 % 0,0 l/m 6,4 km/h (2 Bft) O-SO 112 10,7 C 28,7 C 16,7 km/h (3 Bft)
28.08.2012 11:50 27,6 C 36 % 0,0 l/m 5,6 km/h (1 Bft) S-SO 157 11,2 C 28,6 C 5,0 km/h (1 Bft)
28.08.2012 11:55 27,6 C 36 % 0,0 l/m 6,3 km/h (2 Bft) S 180 11,4 C 28,4 C 6,8 km/h (2 Bft)
28.08.2012 12:00 27,6 C 36 % 0,0 l/m 6,1 km/h (2 Bft) SO 135 11,2 C 28,4 C 8,7 km/h (2 Bft)
28.08.2012 12:05 27,6 C 38 % 0,0 l/m 6,9 km/h (2 Bft) S 180 12,0 C 28,1 C 7,2 km/h (2 Bft)
28.08.2012 12:10 27,5 C 37 % 0,0 l/m 7,1 km/h (2 Bft) O 90 11,5 C 28,1 C 8,2 km/h (2 Bft)
28.08.2012 12:15 27,7 C 37 % 0,0 l/m 6,9 km/h (2 Bft) SO 135 11,7 C 28,1 C 13,2 km/h (3 Bft)
28.08.2012 12:20 27,6 C 36 % 0,0 l/m 6,9 km/h (2 Bft) SO 135 11,2 C 28,1 C 10,1 km/h (2 Bft)
28.08.2012 12:25 27,6 C 38 % 0,0 l/m 7,1 km/h (2 Bft) SO 135 12,0 C 28,1 C 6,6 km/h (2 Bft)
28.08.2012 12:30 27,7 C 37 % 0,0 l/m 7,1 km/h (2 Bft) S 180 11,7 C 28,3 C 7,6 km/h (2 Bft)
28.08.2012 12:35 27,8 C 37 % 0,0 l/m 6,6 km/h (2 Bft) S-SO 157 11,8 C 28,6 C 9,5 km/h (2 Bft)
28.08.2012 12:40 27,9 C 39 % 0,0 l/m 6,1 km/h (2 Bft) S 180 12,6 C 28,8 C 4,3 km/h (1 Bft)
28.08.2012 12:45 27,9 C 39 % 0,0 l/m 6,3 km/h (2 Bft) S-SO 157 12,6 C 29,0 C 10,1 km/h (2 Bft)
28.08.2012 12:50 28,4 C 40 % 0,0 l/m 6,3 km/h (2 Bft) SO 135 13,5 C 29,2 C 7,4 km/h (2 Bft)
28.08.2012 12:55 28,2 C 37 % 0,0 l/m 6,6 km/h (2 Bft) S 180 12,1 C 29,1 C 11,3 km/h (2 Bft)
28.08.2012 13:00 28,3 C 38 % 0,0 l/m 7,2 km/h (2 Bft) SO 135 12,6 C 28,8 C 12,7 km/h (3 Bft)
28.08.2012 13:05 27,2 C 36 % 0,0 l/m 9,2 km/h (2 Bft) SO 135 10,8 C 27,7 C 18,5 km/h (3 Bft)
28.08.2012 13:10 27,0 C 38 % 0,0 l/m 10,1 km/h (2 Bft) SO 135 11,5 C 27,0 C 11,6 km/h (2 Bft)
28.08.2012 13:15 27,0 C 38 % 0,0 l/m 10,1 km/h (2 Bft) SO 135 11,5 C 26,7 C 19,5 km/h (3 Bft)
28.08.2012 13:20 26,8 C 37 % 0,0 l/m 10,5 km/h (2 Bft) SO 135 10,9 C 26,6 C 6,6 km/h (2 Bft)
28.08.2012 13:25 26,9 C 38 % 0,0 l/m 10,0 km/h (2 Bft) O-SO 112 11,4 C 26,7 C 20,4 km/h (4 Bft)
28.08.2012 13:30 26,7 C 37 % 0,0 l/m 9,3 km/h (2 Bft) SO 135 10,8 C 26,4 C 15,9 km/h (3 Bft)
28.08.2012 13:35 26,3 C 39 % 0,0 l/m 11,6 km/h (2 Bft) O 90 11,2 C 25,0 C 26,9 km/h (4 Bft)
28.08.2012 13:40 26,3 C 37 % 0,0 l/m 11,1 km/h (2 Bft) O-SO 112 10,4 C 24,9 C 7,7 km/h (2 Bft)
28.08.2012 13:45 26,6 C 38 % 0,0 l/m 9,7 km/h (2 Bft) S-SO 157 11,1 C 25,3 C 12,7 km/h (3 Bft)
28.08.2012 13:50 26,3 C 36 % 0,0 l/m 10,1 km/h (2 Bft) S 180 10,0 C 25,8 C 14,5 km/h (3 Bft)
28.08.2012 13:55 26,2 C 37 % 0,0 l/m 10,8 km/h (2 Bft) SO 135 10,3 C 26,0 C 15,1 km/h (3 Bft)
28.08.2012 14:00 26,3 C 38 % 0,0 l/m 11,7 km/h (2 Bft) S 180 10,8 C 26,4 C 12,6 km/h (3 Bft)
28.08.2012 14:05 26,1 C 36 % 0,0 l/m 11,4 km/h (2 Bft) S 180 9,8 C 26,6 C 10,3 km/h (2 Bft)
28.08.2012 14:10 26,1 C 37 % 0,0 l/m 10,6 km/h (2 Bft) O-SO 112 10,3 C 26,7 C 11,4 km/h (2 Bft)
28.08.2012 14:15 26,2 C 37 % 0,0 l/m 10,3 km/h (2 Bft) O-SO 112 10,3 C 27,0 C 14,3 km/h (3 Bft)
28.08.2012 14:20 25,7 C 38 % 0,0 l/m 9,8 km/h (2 Bft) SO 135 10,3 C 26,5 C 6,0 km/h (2 Bft)
28.08.2012 14:25 26,3 C 38 % 0,0 l/m 9,2 km/h (2 Bft) S 180 10,8 C 26,9 C 10,0 km/h (2 Bft)
28.08.2012 14:30 26,3 C 38 % 0,0 l/m 9,7 km/h (2 Bft) O-SO 112 10,8 C 27,0 C 15,9 km/h (3 Bft)
28.08.2012 14:35 26,4 C 37 % 0,0 l/m 10,3 km/h (2 Bft) SO 135 10,5 C 27,0 C 19,8 km/h (3 Bft)
28.08.2012 14:40 26,3 C 35 % 0,0 l/m 10,0 km/h (2 Bft) S 180 9,6 C 26,9 C 10,1 km/h (2 Bft)
28.08.2012 14:45 26,0 C 36 % 0,0 l/m 10,9 km/h (2 Bft) SO 135 9,8 C 26,8 C 10,5 km/h (2 Bft)
28.08.2012 14:50 25,9 C 35 % 0,0 l/m 10,5 km/h (2 Bft) S-SO 157 9,3 C 26,9 C 11,1 km/h (2 Bft)
28.08.2012 14:55 25,9 C 35 % 0,0 l/m 10,8 km/h (2 Bft) O-SO 112 9,3 C 26,5 C 15,6 km/h (3 Bft)
28.08.2012 15:00 25,9 C 36 % 0,0 l/m 11,1 km/h (2 Bft) SO 135 9,7 C 26,3 C 18,8 km/h (3 Bft)
28.08.2012 15:05 25,7 C 37 % 0,0 l/m 10,5 km/h (2 Bft) SO 135 9,9 C 26,3 C 9,8 km/h (2 Bft)
28.08.2012 15:10 26,0 C 37 % 0,0 l/m 8,5 km/h (2 Bft) SO 135 10,2 C 26,9 C 12,6 km/h (3 Bft)
28.08.2012 15:15 26,1 C 36 % 0,0 l/m 7,4 km/h (2 Bft) SO 135 9,8 C 27,3 C 7,6 km/h (2 Bft)
28.08.2012 15:20 26,1 C 38 % 0,0 l/m 7,1 km/h (2 Bft) O 90 10,7 C 27,5 C 6,4 km/h (2 Bft)
28.08.2012 15:25 25,9 C 37 % 0,0 l/m 7,9 km/h (2 Bft) O-SO 112 10,1 C 27,1 C 6,1 km/h (2 Bft)
28.08.2012 15:30 26,1 C 36 % 0,0 l/m 8,7 km/h (2 Bft) S-SO 157 9,8 C 27,1 C 10,3 km/h (2 Bft)
28.08.2012 15:35 26,3 C 34 % 0,0 l/m 8,5 km/h (2 Bft) S 180 9,2 C 27,5 C 9,8 km/h (2 Bft)
28.08.2012 15:40 26,2 C 36 % 0,0 l/m 8,4 km/h (2 Bft) N-NO 22 9,9 C 27,6 C 4,7 km/h (1 Bft)
28.08.2012 15:45 26,1 C 36 % 0,0 l/m 7,2 km/h (2 Bft) SO 135 9,8 C 28,1 C 8,9 km/h (2 Bft)
28.08.2012 15:50 26,3 C 35 % 0,0 l/m 7,1 km/h (2 Bft) S 180 9,6 C 28,2 C 13,2 km/h (3 Bft)
28.08.2012 15:55 26,3 C 35 % 0,0 l/m 8,7 km/h (2 Bft) S-SO 157 9,6 C 27,8 C 6,6 km/h (2 Bft)
28.08.2012 16:00 26,4 C 33 % 0,0 l/m 9,2 km/h (2 Bft) S-SO 157 8,8 C 27,7 C 10,0 km/h (2 Bft)
28.08.2012 16:05 26,0 C 34 % 0,0 l/m 9,0 km/h (2 Bft) O-SO 112 8,9 C 27,7 C 7,7 km/h (2 Bft)
28.08.2012 16:10 25,9 C 35 % 0,0 l/m 9,3 km/h (2 Bft) SO 135 9,3 C 27,6 C 16,3 km/h (3 Bft)
28.08.2012 16:15 25,9 C 36 % 0,0 l/m 9,5 km/h (2 Bft) SO 135 9,7 C 27,3 C 9,5 km/h (2 Bft)
28.08.2012 16:20 25,8 C 37 % 0,0 l/m 9,2 km/h (2 Bft) SO 135 10,0 C 27,5 C 7,6 km/h (2 Bft)
28.08.2012 16:25 25,8 C 38 % 0,0 l/m 8,2 km/h (2 Bft) S 180 10,4 C 27,7 C 14,3 km/h (3 Bft)
28.08.2012 16:30 25,8 C 38 % 0,0 l/m 8,4 km/h (2 Bft) S 180 10,4 C 27,7 C 16,4 km/h (3 Bft)
28.08.2012 16:35 24,6 C 38 % 0,0 l/m 9,5 km/h (2 Bft) S 180 9,3 C 26,3 C 14,0 km/h (3 Bft)
28.08.2012 16:40 24,6 C 40 % 0,0 l/m 8,9 km/h (2 Bft) S-SO 157 10,1 C 25,8 C 4,8 km/h (1 Bft)
28.08.2012 16:45 24,6 C 38 % 0,0 l/m 9,2 km/h (2 Bft) SO 135 9,3 C 26,1 C 11,1 km/h (2 Bft)
28.08.2012 16:50 24,6 C 41 % 0,0 l/m 9,0 km/h (2 Bft) O-SO 112 10,5 C 26,0 C 10,1 km/h (2 Bft)
28.08.2012 16:55 24,2 C 41 % 0,0 l/m 8,7 km/h (2 Bft) O-SO 112 10,1 C 26,3 C 9,7 km/h (2 Bft)
28.08.2012 17:00 24,0 C 41 % 0,0 l/m 7,6 km/h (2 Bft) S-SO 157 9,9 C 25,8 C 6,1 km/h (2 Bft)
28.08.2012 17:05 23,9 C 44 % 0,0 l/m 7,1 km/h (2 Bft) O-SO 112 10,9 C 25,7 C 8,2 km/h (2 Bft)
28.08.2012 17:10 23,8 C 45 % 0,0 l/m 7,4 km/h (2 Bft) SO 135 11,1 C 25,5 C 5,8 km/h (2 Bft)
28.08.2012 17:15 23,3 C 47 % 0,0 l/m 7,2 km/h (2 Bft) S 180 11,3 C 25,3 C 5,8 km/h (2 Bft)
28.08.2012 17:20 23,2 C 47 % 0,0 l/m 6,3 km/h (2 Bft) S-SO 157 11,3 C 25,2 C 5,3 km/h (1 Bft)
28.08.2012 17:25 23,0 C 49 % 0,0 l/m 5,6 km/h (1 Bft) O-SO 112 11,7 C 25,0 C 9,7 km/h (2 Bft)
28.08.2012 17:30 22,6 C 52 % 0,0 l/m 6,0 km/h (2 Bft) SO 135 12,2 C 24,3 C 8,7 km/h (2 Bft)
28.08.2012 17:35 22,3 C 53 % 0,0 l/m 7,1 km/h (2 Bft) O-SO 112 12,2 C 23,4 C 6,6 km/h (2 Bft)
28.08.2012 17:40 22,3 C 52 % 0,0 l/m 6,9 km/h (2 Bft) O-SO 112 12,0 C 23,3 C 8,2 km/h (2 Bft)
28.08.2012 17:45 21,9 C 55 % 0,0 l/m 5,3 km/h (1 Bft) SO 135 12,4 C 23,0 C 6,0 km/h (2 Bft)
28.08.2012 17:50 21,6 C 56 % 0,0 l/m 4,5 km/h (1 Bft) SO 135 12,4 C 22,8 C 5,6 km/h (1 Bft)
28.08.2012 17:55 21,5 C 56 % 0,0 l/m 4,2 km/h (1 Bft) O-SO 112 12,3 C 22,6 C 4,0 km/h (1 Bft)
28.08.2012 18:00 21,4 C 56 % 0,0 l/m 4,2 km/h (1 Bft) O-SO 112 12,3 C 22,4 C 5,0 km/h (1 Bft)
28.08.2012 18:05 21,0 C 58 % 0,0 l/m 3,5 km/h (1 Bft) O-SO 112 12,4 C 22,1 C 5,5 km/h (1 Bft)
28.08.2012 18:10 21,0 C 57 % 0,0 l/m 3,2 km/h (1 Bft) SO 135 12,1 C 22,0 C 0,0 km/h (0 Bft)
28.08.2012 18:15 20,8 C 58 % 0,0 l/m 2,6 km/h (1 Bft) NO 45 12,2 C 21,7 C 4,5 km/h (1 Bft)
28.08.2012 18:20 20,7 C 58 % 0,0 l/m 1,6 km/h (1 Bft) N-NO 22 12,1 C 21,6 C 0,0 km/h (0 Bft)
28.08.2012 18:25 20,6 C 58 % 0,0 l/m 2,3 km/h (1 Bft) O-SO 112 12,0 C 21,5 C 2,3 km/h (1 Bft)
28.08.2012 18:30 20,5 C 59 % 0,0 l/m 2,1 km/h (1 Bft) S-SO 157 12,2 C 21,4 C 1,9 km/h (1 Bft)
28.08.2012 18:35 20,3 C 59 % 0,0 l/m 1,4 km/h (1 Bft) O-SO 112 12,0 C 21,2 C 5,5 km/h (1 Bft)
28.08.2012 18:40 20,2 C 59 % 0,0 l/m 1,1 km/h (1 Bft) O-SO 112 11,9 C 21,0 C 0,0 km/h (0 Bft)
28.08.2012 18:45 20,0 C 59 % 0,0 l/m 1,4 km/h (1 Bft) SO 135 11,7 C 20,7 C 1,6 km/h (1 Bft)
28.08.2012 18:50 19,8 C 60 % 0,0 l/m 1,6 km/h (1 Bft) SO 135 11,8 C 20,6 C 2,7 km/h (1 Bft)
28.08.2012 18:55 19,6 C 61 % 0,0 l/m 1,6 km/h (1 Bft) O-SO 112 11,9 C 20,4 C 2,9 km/h (1 Bft)
28.08.2012 19:00 19,5 C 61 % 0,0 l/m 1,4 km/h (1 Bft) N-NO 22 11,8 C 20,2 C 0,0 km/h (0 Bft)
28.08.2012 19:05 19,4 C 62 % 0,0 l/m 1,1 km/h (1 Bft) O-SO 112 11,9 C 20,0 C 1,6 km/h (1 Bft)
28.08.2012 19:10 19,3 C 62 % 0,0 l/m 1,0 km/h (0 Bft) SO 135 11,8 C 19,9 C 4,0 km/h (1 Bft)
28.08.2012 19:15 19,3 C 63 % 0,0 l/m 1,6 km/h (1 Bft) O 90 12,1 C 19,7 C 6,1 km/h (2 Bft)
28.08.2012 19:20 19,6 C 52 % 0,0 l/m 3,7 km/h (1 Bft) NO 45 9,5 C 19,7 C 4,0 km/h (1 Bft)
28.08.2012 19:25 19,5 C 59 % 0,0 l/m 4,3 km/h (1 Bft) N-NO 22 11,3 C 19,8 C 3,4 km/h (1 Bft)
28.08.2012 19:30 19,1 C 62 % 0,0 l/m 2,4 km/h (1 Bft) N-NO 22 11,6 C 19,7 C 0,0 km/h (0 Bft)
28.08.2012 19:35 18,8 C 64 % 0,0 l/m 0,8 km/h (0 Bft) NO 45 11,8 C 19,3 C 0,0 km/h (0 Bft)
28.08.2012 19:40 18,7 C 65 % 0,0 l/m 0,6 km/h (0 Bft) NO 45 12,0 C 19,1 C 0,0 km/h (0 Bft)
28.08.2012 19:45 18,3 C 66 % 0,0 l/m 0,2 km/h (0 Bft) S 180 11,8 C 18,7 C 0,0 km/h (0 Bft)
28.08.2012 19:50 18,2 C 68 % 0,0 l/m 1,3 km/h (1 Bft) SO 135 12,2 C 18,5 C 4,2 km/h (1 Bft)
28.08.2012 19:55 18,0 C 69 % 0,0 l/m 2,3 km/h (1 Bft) N 360 12,2 C 18,5 C 0,0 km/h (0 Bft)
28.08.2012 20:00 17,9 C 69 % 0,0 l/m 1,9 km/h (1 Bft) NO 45 12,1 C 18,3 C 5,6 km/h (1 Bft)
28.08.2012 20:05 17,7 C 69 % 0,0 l/m 1,4 km/h (1 Bft) O 90 11,9 C 18,1 C 0,0 km/h (0 Bft)
28.08.2012 20:10 17,7 C 69 % 0,0 l/m 1,6 km/h (1 Bft) N 360 11,9 C 18,0 C 0,0 km/h (0 Bft)
28.08.2012 20:15 17,6 C 69 % 0,0 l/m 2,1 km/h (1 Bft) O-SO 112 11,8 C 17,9 C 4,5 km/h (1 Bft)
28.08.2012 20:20 17,5 C 69 % 0,0 l/m 2,7 km/h (1 Bft) O-SO 112 11,7 C 17,9 C 4,3 km/h (1 Bft)
28.08.2012 20:25 17,6 C 69 % 0,0 l/m 2,9 km/h (1 Bft) O-SO 112 11,8 C 17,9 C 4,8 km/h (1 Bft)
28.08.2012 20:30 17,6 C 69 % 0,0 l/m 3,9 km/h (1 Bft) O-SO 112 11,8 C 17,9 C 12,7 km/h (3 Bft)
28.08.2012 20:35 17,7 C 64 % 0,0 l/m 8,5 km/h (2 Bft) O-SO 112 10,8 C 16,8 C 11,1 km/h (2 Bft)
28.08.2012 20:40 17,4 C 65 % 0,0 l/m 10,3 km/h (2 Bft) N 360 10,8 C 16,0 C 14,3 km/h (3 Bft)
28.08.2012 20:45 16,9 C 68 % 0,0 l/m 9,0 km/h (2 Bft) S-SO 157 11,0 C 15,9 C 6,0 km/h (2 Bft)
28.08.2012 20:50 16,5 C 70 % 0,0 l/m 7,4 km/h (2 Bft) SO 135 11,0 C 16,0 C 4,7 km/h (1 Bft)
28.08.2012 20:55 16,1 C 72 % 0,0 l/m 5,1 km/h (1 Bft) SO 135 11,0 C 16,0 C 7,2 km/h (2 Bft)
28.08.2012 21:00 15,8 C 76 % 0,0 l/m 3,5 km/h (1 Bft) SO 135 11,6 C 15,6 C 2,6 km/h (1 Bft)
28.08.2012 21:05 15,5 C 80 % 0,0 l/m 3,7 km/h (1 Bft) O-SO 112 12,1 C 15,0 C 5,8 km/h (2 Bft)
28.08.2012 21:10 15,3 C 82 % 0,0 l/m 3,1 km/h (1 Bft) NO 45 12,2 C 14,9 C 0,0 km/h (0 Bft)
28.08.2012 21:15 15,0 C 83 % 0,0 l/m 1,1 km/h (1 Bft) SO 135 12,1 C 14,7 C 0,0 km/h (0 Bft)
28.08.2012 21:20 15,0 C 84 % 0,0 l/m 0,5 km/h (0 Bft) N 360 12,3 C 14,6 C 2,6 km/h (1 Bft)
28.08.2012 21:25 14,9 C 85 % 0,0 l/m 1,0 km/h (0 Bft) S-SW 202 12,4 C 14,5 C 6,0 km/h (2 Bft)
28.08.2012 21:30 15,0 C 85 % 0,0 l/m 2,9 km/h (1 Bft) S-SO 157 12,5 C 14,5 C 7,2 km/h (2 Bft)
28.08.2012 21:35 14,9 C 85 % 0,0 l/m 6,0 km/h (2 Bft) S-SO 157 12,4 C 14,4 C 13,2 km/h (3 Bft)
28.08.2012 21:40 14,7 C 86 % 0,0 l/m 5,8 km/h (2 Bft) O-SO 112 12,4 C 14,2 C 0,0 km/h (0 Bft)
28.08.2012 21:45 14,4 C 86 % 0,0 l/m 3,4 km/h (1 Bft) NO 45 12,1 C 13,9 C 3,1 km/h (1 Bft)
28.08.2012 21:50 14,4 C 87 % 0,0 l/m 1,6 km/h (1 Bft) N-NO 22 12,3 C 13,9 C 1,8 km/h (1 Bft)
28.08.2012 21:55 14,2 C 87 % 0,0 l/m 0,8 km/h (0 Bft) N-NO 22 12,1 C 13,7 C 0,0 km/h (0 Bft)
28.08.2012 22:00 14,1 C 88 % 0,0 l/m 0,3 km/h (0 Bft) SO 135 12,1 C 13,7 C 0,0 km/h (0 Bft)
28.08.2012 22:05 14,1 C 89 % 0,0 l/m 0,2 km/h (0 Bft) O-SO 112 12,3 C 13,7 C 0,0 km/h (0 Bft)
28.08.2012 22:10 14,1 C 89 % 0,0 l/m 0,2 km/h (0 Bft) N 360 12,3 C 13,6 C 1,8 km/h (1 Bft)
28.08.2012 22:15 14,0 C 90 % 0,0 l/m 0,8 km/h (0 Bft) N 360 12,4 C 13,6 C 1,9 km/h (1 Bft)
28.08.2012 22:20 13,9 C 91 % 0,7 l/m 0,8 km/h (0 Bft) N 360 12,5 C 13,6 C 0,0 km/h (0 Bft)
28.08.2012 22:25 13,7 C 91 % 0,0 l/m 0,6 km/h (0 Bft) N 360 12,3 C 13,5 C 3,2 km/h (1 Bft)
28.08.2012 22:30 13,7 C 91 % 0,0 l/m 1,0 km/h (0 Bft) O-SO 112 12,3 C 13,5 C 0,0 km/h (0 Bft)
28.08.2012 22:35 13,5 C 92 % 0,0 l/m 1,0 km/h (0 Bft) NO 45 12,2 C 13,4 C 0,0 km/h (0 Bft)
28.08.2012 22:40 13,5 C 92 % 0,0 l/m 0,6 km/h (0 Bft) N 360 12,2 C 13,3 C 1,8 km/h (1 Bft)
28.08.2012 22:45 13,4 C 92 % 0,0 l/m 1,0 km/h (0 Bft) O-SO 112 12,1 C 13,2 C 0,0 km/h (0 Bft)
28.08.2012 22:50 13,4 C 92 % 0,0 l/m 0,6 km/h (0 Bft) N-NW 337 12,1 C 13,2 C 1,9 km/h (1 Bft)
28.08.2012 22:55 13,4 C 93 % 0,0 l/m 0,5 km/h (0 Bft) N-NW 337 12,3 C 13,2 C 0,0 km/h (0 Bft)
28.08.2012 23:00 13,4 C 93 % 0,0 l/m 0,3 km/h (0 Bft) N-NW 337 12,3 C 13,2 C 0,0 km/h (0 Bft)
28.08.2012 23:05 13,4 C 93 % 0,0 l/m 0,0 km/h (0 Bft) W-NW 292 12,3 C 13,2 C 0,0 km/h (0 Bft)
28.08.2012 23:10 13,4 C 93 % 0,0 l/m 0,0 km/h (0 Bft) NW 315 12,3 C 13,2 C 0,0 km/h (0 Bft)
28.08.2012 23:15 13,4 C 93 % 0,0 l/m 0,2 km/h (0 Bft) N 360 12,3 C 13,2 C 0,0 km/h (0 Bft)
28.08.2012 23:20 13,4 C 93 % 0,0 l/m 0,2 km/h (0 Bft) S-SO 157 12,3 C 13,2 C 0,0 km/h (0 Bft)
28.08.2012 23:25 13,4 C 93 % 0,0 l/m 0,5 km/h (0 Bft) N 360 12,3 C 13,2 C 2,6 km/h (1 Bft)
28.08.2012 23:30 13,4 C 93 % 0,0 l/m 1,1 km/h (1 Bft) W-NW 292 12,3 C 13,3 C 1,8 km/h (1 Bft)
28.08.2012 23:35 13,5 C 93 % 0,0 l/m 1,3 km/h (1 Bft) S-SW 202 12,4 C 13,3 C 2,7 km/h (1 Bft)
28.08.2012 23:40 13,5 C 93 % 0,0 l/m 1,0 km/h (0 Bft) S 180 12,4 C 13,3 C 0,0 km/h (0 Bft)
28.08.2012 23:45 13,4 C 93 % 0,0 l/m 0,5 km/h (0 Bft) W 270 12,3 C 13,3 C 1,6 km/h (1 Bft)
28.08.2012 23:50 13,4 C 93 % 0,0 l/m 0,2 km/h (0 Bft) N 360 12,3 C 13,3 C 0,0 km/h (0 Bft)
28.08.2012 23:55 13,4 C 94 % 0,0 l/m 0,2 km/h (0 Bft) W-SW 247 12,5 C 13,3 C 0,0 km/h (0 Bft)
_ Min-Zeit 06:00 16:00 - 23:10 - - 06:00 06:10 23:55
Minimum _ 7,3 C 33 % - 0,0 km/h (0 Bft) - - 5,4 C 6,5 C 0,0 km/h (0 Bft)
_ Max-Zeit 12:50 23:55 22:20 14:00 - - 12:50 10:45 13:35
Maximum _ 28,4 C 94 % 0,7 l/m 11,7 km/h
S (2 Bft)
- - 13,5 C 31,9 C 26,9 km/h
O (4 Bft)
Durchschnitt _ 16,8 C 66 % #0,7 l/m 3,0 km/h (1 Bft) SO - 9,7 C 18,1 C 3,8 km/h (1 Bft)